Time;durP1;ratioP1;P1;durP2;ratioP2;P2;SDS_P1;SDS_P2;PMS_P1;PMS_P2;Temp;Humidity;BMP_temperature;BMP_pressure;BME280_temperature;BME280_humidity;BME280_pressure;Samples;Min_cycle;Max_cycle;Signal;HPM_P1;HPM_P2
2023/03/13 00:00:52;;;;;;;;;;;;;;;;;;4244317;27;19915;-46
2023/03/13 00:02:52;;;;;;;;;;;;;;;;;;4246807;27;20018;-46
2023/03/13 00:04:53;;;;;;;;;;;;;;;;;;4247672;27;19966;-45
2023/03/13 00:06:55;;;;;;;;;;;;;;;;;;4247558;27;19968;-46
2023/03/13 00:08:56;;;;;;;;;;;;;;;;;;4247528;27;19922;-46
2023/03/13 00:10:57;;;;;;;;;;;;;;;;;;4247519;27;20389;-46
2023/03/13 00:12:58;;;;;;;;;;;;;;;;;;4247525;27;19941;-46
2023/03/13 00:14:59;;;;;;;;;;;;;;;;;;4247428;27;19916;-45
2023/03/13 00:17:01;;;;;;;;;;;;;;;;;;4246839;27;19987;-47
2023/03/13 00:19:02;;;;;;;;;;;;;;;;;;4239558;27;19915;-47
2023/03/13 00:21:03;;;;;;;;;;;;;;;;;;4229411;28;19965;-45
2023/03/13 00:23:05;;;;;;;;;;;;;;;;;;4247196;27;19964;-45
2023/03/13 00:25:06;;;;;;;;;;;;;;;;;;4247282;27;20302;-46
2023/03/13 00:27:07;;;;;;;;;;;;;;;;;;4239788;27;19923;-49
2023/03/13 00:29:08;;;;;;;;;;;;;;;;;;4247002;27;20389;-51
2023/03/13 00:31:10;;;;;;;;;;;;;;;;;;4221055;28;19953;-48
2023/03/13 00:33:11;;;;;;;;;;;;;;;;;;4247359;27;19949;-46
2023/03/13 00:35:12;;;;;;;;;;;;;;;;;;4246381;27;20421;-47
2023/03/13 00:37:13;;;;;;;;;;;;;;;;;;4205563;28;19916;-46
2023/03/13 00:39:14;;;;;;;;;;;;;;;;;;4247101;27;20426;-49
2023/03/13 00:41:15;;;;;;;;;;;;;;;;;;4247130;27;19919;-50
2023/03/13 00:43:16;;;;;;;;;;;;;;;;;;4242182;27;19915;-49
2023/03/13 00:45:18;;;;;;;;;;;;;;;;;;4235796;27;19927;-47
2023/03/13 00:47:18;;;;;;;;;;;;;;;;;;4239195;27;19919;-49
2023/03/13 00:49:20;;;;;;;;;;;;;;;;;;4246947;27;19916;-51
2023/03/13 00:51:22;;;;;;;;;;;;;;;;;;4228752;28;20386;-47
2023/03/13 00:53:24;;;;;;;;;;;;;;;;;;4247222;28;19915;-51
2023/03/13 00:55:25;;;;;;;;;;;;;;;;;;4243822;28;19989;-47
2023/03/13 00:57:26;;;;;;;;;;;;;;;;;;4236187;28;20207;-48
2023/03/13 00:59:27;;;;;;;;;;;;;;;;;;4238547;28;19923;-44
2023/03/13 01:01:28;;;;;;;;;;;;;;;;;;4244549;28;20006;-46
2023/03/13 01:03:29;;;;;;;;;;;;;;;;;;4228748;28;19931;-48
2023/03/13 01:05:30;;;;;;;;;;;;;;;;;;4248771;27;19923;-51
2023/03/13 01:07:32;;;;;;;;;;;;;;;;;;4239714;27;20003;-48
2023/03/13 01:09:33;;;;;;;;;;;;;;;;;;4243114;27;20012;-49
2023/03/13 01:11:34;;;;;;;;;;;;;;;;;;4247687;27;19915;-49
2023/03/13 01:13:35;;;;;;;;;;;;;;;;;;4232285;28;20015;-47
2023/03/13 01:15:36;;;;;;;;;;;;;;;;;;4241613;27;19959;-49
2023/03/13 01:17:38;;;;;;;;;;;;;;;;;;4249785;27;19919;-51
2023/03/13 01:19:39;;;;;;;;;;;;;;;;;;4250575;27;19946;-51
2023/03/13 01:21:40;;;;;;;;;;;;;;;;;;4249935;27;19915;-51
2023/03/13 01:23:41;;;;;;;;;;;;;;;;;;4250155;27;19923;-51
2023/03/13 01:25:44;;;;;;;;;;;;;;;;;;4231505;28;20547;-50
2023/03/13 01:27:45;;;;;;;;;;;;;;;;;;4226618;28;20408;-52
2023/03/13 01:29:46;;;;;;;;;;;;;;;;;;4230558;28;19916;-47
2023/03/13 01:31:47;;;;;;;;;;;;;;;;;;4231436;28;20353;-50
2023/03/13 01:33:48;;;;;;;;;;;;;;;;;;4224012;28;19965;-51
2023/03/13 01:35:50;;;;;;;;;;;;;;;;;;4233380;27;19961;-49
2023/03/13 01:37:51;;;;;;;;;;;;;;;;;;4232853;28;19919;-51
2023/03/13 01:39:52;;;;;;;;;;;;;;;;;;4231989;28;19926;-50
2023/03/13 01:41:54;;;;;;;;;;;;;;;;;;4231834;28;19961;-48
2023/03/13 01:43:55;;;;;;;;;;;;;;;;;;4238167;27;19965;-50
2023/03/13 01:45:57;;;;;;;;;;;;;;;;;;4228136;28;20413;-48
2023/03/13 01:47:59;;;;;;;;;;;;;;;;;;4248066;27;19969;-45
2023/03/13 01:50:15;;;;;;;;;;;;;;;;;;4231596;28;20349;-45
2023/03/13 01:52:32;;;;;;;;;;;;;;;;;;4241136;27;19965;-45
2023/03/13 01:54:42;;;;;;;;;;;;;;;;;;4222545;28;20445;-48
2023/03/13 01:56:44;;;;;;;;;;;;;;;;;;4212633;28;20295;-48
2023/03/13 01:58:45;;;;;;;;;;;;;;;;;;4227188;28;19916;-50
2023/03/13 02:00:46;;;;;;;;;;;;;;;;;;4228455;28;19916;-50
2023/03/13 02:02:47;;;;;;;;;;;;;;;;;;4224361;28;19965;-49
2023/03/13 02:04:49;;;;;;;;;;;;;;;;;;4214227;28;19950;-49
2023/03/13 02:06:50;;;;;;;;;;;;;;;;;;4224875;28;19920;-50
2023/03/13 02:08:51;;;;;;;;;;;;;;;;;;4248453;27;19972;-48
2023/03/13 02:10:52;;;;;;;;;;;;;;;;;;4224536;27;19963;-52
2023/03/13 02:12:53;;;;;;;;;;;;;;;;;;4232501;28;19916;-51
2023/03/13 02:14:55;;;;;;;;;;;;;;;;;;4231153;28;19923;-49
2023/03/13 02:16:56;;;;;;;;;;;;;;;;;;4246280;27;19966;-50
2023/03/13 02:18:57;;;;;;;;;;;;;;;;;;4232479;28;19923;-48
2023/03/13 02:20:58;;;;;;;;;;;;;;;;;;4231204;28;19916;-49
2023/03/13 02:22:59;;;;;;;;;;;;;;;;;;4239665;27;19923;-47
2023/03/13 02:25:00;;;;;;;;;;;;;;;;;;4230633;28;19969;-50
2023/03/13 02:27:02;;;;;;;;;;;;;;;;;;4227924;27;20337;-47
2023/03/13 02:29:02;;;;;;;;;;;;;;;;;;4224882;28;19922;-46
2023/03/13 02:31:03;;;;;;;;;;;;;;;;;;4227771;28;19919;-47
2023/03/13 02:33:04;;;;;;;;;;;;;;;;;;4223197;28;19916;-49
2023/03/13 02:35:05;;;;;;;;;;;;;;;;;;4248787;27;20332;-49
2023/03/13 02:37:09;;;;;;;;;;;;;;;;;;4247584;27;20349;-51
2023/03/13 02:39:11;;;;;;;;;;;;;;;;;;4230799;28;19949;-47
2023/03/13 02:41:11;;;;;;;;;;;;;;;;;;4248514;27;19920;-46
2023/03/13 02:43:13;;;;;;;;;;;;;;;;;;4230770;28;19930;-47
2023/03/13 02:45:15;;;;;;;;;;;;;;;;;;4230511;28;20378;-46
2023/03/13 02:47:17;;;;;;;;;;;;;;;;;;4242272;27;19993;-47
2023/03/13 02:49:18;;;;;;;;;;;;;;;;;;4248689;27;19919;-47
2023/03/13 02:51:19;;;;;;;;;;;;;;;;;;4247388;27;19986;-47
2023/03/13 02:53:20;;;;;;;;;;;;;;;;;;4222900;28;19962;-45
2023/03/13 02:55:22;;;;;;;;;;;;;;;;;;4223125;28;20449;-45
2023/03/13 02:57:23;;;;;;;;;;;;;;;;;;4238601;27;20297;-46
2023/03/13 02:59:24;;;;;;;;;;;;;;;;;;4243959;27;19915;-46
2023/03/13 03:01:25;;;;;;;;;;;;;;;;;;4230089;28;19972;-48
2023/03/13 03:03:26;;;;;;;;;;;;;;;;;;4245970;27;19923;-45
2023/03/13 03:05:27;;;;;;;;;;;;;;;;;;4244637;27;19961;-45
2023/03/13 03:07:28;;;;;;;;;;;;;;;;;;4229874;28;19971;-48
2023/03/13 03:09:29;;;;;;;;;;;;;;;;;;4230388;28;19919;-47
2023/03/13 03:11:35;;;;;;;;;;;;;;;;;;4229456;28;19968;-49
2023/03/13 03:13:40;;;;;;;;;;;;;;;;;;4222315;28;19952;-48
2023/03/13 03:15:41;;;;;;;;;;;;;;;;;;4236251;27;20958;-50
2023/03/13 03:17:42;;;;;;;;;;;;;;;;;;4241683;27;19922;-48
2023/03/13 03:19:44;;;;;;;;;;;;;;;;;;4245152;27;19915;-50
2023/03/13 03:21:45;;;;;;;;;;;;;;;;;;4229947;28;19922;-50
2023/03/13 03:23:46;;;;;;;;;;;;;;;;;;4246765;27;19919;-48
2023/03/13 03:25:47;;;;;;;;;;;;;;;;;;4242085;27;20586;-49
2023/03/13 03:27:49;;;;;;;;;;;;;;;;;;4232513;27;19927;-49
2023/03/13 03:29:50;;;;;;;;;;;;;;;;;;4230170;28;20451;-46
2023/03/13 03:31:51;;;;;;;;;;;;;;;;;;4247516;27;19916;-47
2023/03/13 03:33:52;;;;;;;;;;;;;;;;;;4244261;27;19919;-46
2023/03/13 03:35:54;;;;;;;;;;;;;;;;;;4243046;27;20310;-45
2023/03/13 03:37:55;;;;;;;;;;;;;;;;;;4229618;28;19938;-46
2023/03/13 03:39:57;;;;;;;;;;;;;;;;;;4229992;28;19916;-46
2023/03/13 03:41:58;;;;;;;;;;;;;;;;;;4238492;27;19919;-45
2023/03/13 03:43:59;;;;;;;;;;;;;;;;;;4229587;28;19924;-44
2023/03/13 03:46:08;;;;;;;;;;;;;;;;;;4246002;27;19968;-49
2023/03/13 03:48:09;;;;;;;;;;;;;;;;;;4247908;27;19964;-45
2023/03/13 03:50:11;;;;;;;;;;;;;;;;;;4239711;27;19961;-50
2023/03/13 03:52:20;;;;;;;;;;;;;;;;;;4230052;27;19919;-45
2023/03/13 03:54:21;;;;;;;;;;;;;;;;;;4223617;28;19923;-46
2023/03/13 03:56:22;;;;;;;;;;;;;;;;;;4239649;27;19968;-46
2023/03/13 03:58:28;;;;;;;;;;;;;;;;;;4229908;28;19989;-48
2023/03/13 04:00:43;;;;;;;;;;;;;;;;;;4221656;28;19916;-46
2023/03/13 04:02:45;;;;;;;;;;;;;;;;;;4239526;27;20298;-51
2023/03/13 04:04:46;;;;;;;;;;;;;;;;;;4229198;28;19919;-47
2023/03/13 04:06:57;;;;;;;;;;;;;;;;;;4217122;28;20010;-45
2023/03/13 04:08:59;;;;;;;;;;;;;;;;;;4227747;28;19916;-45
2023/03/13 04:11:02;;;;;;;;;;;;;;;;;;4239033;27;19923;-51
2023/03/13 04:13:07;;;;;;;;;;;;;;;;;;4221735;28;19976;-47
2023/03/13 04:15:08;;;;;;;;;;;;;;;;;;4228942;28;19919;-50
2023/03/13 04:17:10;;;;;;;;;;;;;;;;;;4246851;27;20299;-51
2023/03/13 04:19:11;;;;;;;;;;;;;;;;;;4238659;27;19922;-51
2023/03/13 04:21:12;;;;;;;;;;;;;;;;;;4247336;27;19915;-48
2023/03/13 04:23:26;;;;;;;;;;;;;;;;;;4239864;27;20467;-50
2023/03/13 04:25:27;;;;;;;;;;;;;;;;;;4227956;28;19951;-50
2023/03/13 04:27:31;;;;;;;;;;;;;;;;;;4229097;28;19916;-50
2023/03/13 04:29:32;;;;;;;;;;;;;;;;;;4221270;28;19945;-49
2023/03/13 04:31:38;;;;;;;;;;;;;;;;;;4228583;28;20367;-44
2023/03/13 04:33:53;;;;;;;;;;;;;;;;;;4246229;27;19919;-45
2023/03/13 04:36:03;;;;;;;;;;;;;;;;;;4219948;28;19961;-49
2023/03/13 04:38:24;;;;;;;;;;;;;;;;;;4236558;27;19923;-48
2023/03/13 04:40:50;;;;;;;;;;;;;;;;;;4228375;28;19924;-48
2023/03/13 04:43:26;;;;;;;;;;;;;;;;;;4232726;27;19968;-48
2023/03/13 04:45:53;;;;;;;;;;;;;;;;;;4211508;28;19965;-47
2023/03/13 04:48:21;;;;;;;;;;;;;;;;;;4221384;28;19969;-47
2023/03/13 04:50:40;;;;;;;;;;;;;;;;;;4247233;27;19961;-50
2023/03/13 04:53:04;;;;;;;;;;;;;;;;;;4239488;27;19915;-45
2023/03/13 04:55:14;;;;;;;;;;;;;;;;;;4228776;28;20002;-48
2023/03/13 04:57:20;;;;;;;;;;;;;;;;;;4243686;28;19926;-44
2023/03/13 04:59:39;;;;;;;;;;;;;;;;;;4243486;28;19964;-45
2023/03/13 05:01:59;;;;;;;;;;;;;;;;;;4216913;28;19945;-49
2023/03/13 05:04:33;;;;;;;;;;;;;;;;;;4225484;28;19919;-45
2023/03/13 05:07:00;;;;;;;;;;;;;;;;;;4244128;28;19919;-50
2023/03/13 05:09:14;;;;;;;;;;;;;;;;;;4223262;28;19938;-45
2023/03/13 05:11:39;;;;;;;;;;;;;;;;;;4204458;28;19923;-49
2023/03/13 05:14:18;;;;;;;;;;;;;;;;;;4224023;28;19934;-44
2023/03/13 05:16:37;;;;;;;;;;;;;;;;;;4238881;28;19919;-48
2023/03/13 05:19:04;;;;;;;;;;;;;;;;;;4222717;28;19923;-44
2023/03/13 05:21:18;;;;;;;;;;;;;;;;;;4246501;28;20374;-44
2023/03/13 05:23:37;;;;;;;;;;;;;;;;;;4244921;28;19916;-47
2023/03/13 05:25:58;;;;;;;;;;;;;;;;;;4225432;28;19923;-48
2023/03/13 05:28:35;;;;;;;;;;;;;;;;;;4193877;28;19923;-46
2023/03/13 05:30:56;;;;;;;;;;;;;;;;;;4205300;28;20020;-46
2023/03/13 05:33:11;;;;;;;;;;;;;;;;;;4245587;28;19949;-45
2023/03/13 05:35:27;;;;;;;;;;;;;;;;;;4223814;28;20010;-45
2023/03/13 05:37:44;;;;;;;;;;;;;;;;;;4228136;28;20366;-45
2023/03/13 05:40:04;;;;;;;;;;;;;;;;;;4226966;28;19916;-47
2023/03/13 05:42:32;;;;;;;;;;;;;;;;;;4227250;28;19919;-45
2023/03/13 05:44:38;;;;;;;;;;;;;;;;;;4228700;28;19920;-48
2023/03/13 05:47:08;;;;;;;;;;;;;;;;;;4228173;28;19920;-46
2023/03/13 05:49:25;;;;;;;;;;;;;;;;;;4224054;28;19915;-47
2023/03/13 05:51:59;;;;;;;;;;;;;;;;;;4217345;28;19924;-48
2023/03/13 05:54:19;;;;;;;;;;;;;;;;;;4226725;28;19927;-45
2023/03/13 05:56:29;;;;;;;;;;;;;;;;;;4225186;28;19920;-47
2023/03/13 05:58:43;;;;;;;;;;;;;;;;;;4225066;28;19916;-48
2023/03/13 06:01:02;;;;;;;;;;;;;;;;;;4223413;28;19919;-46
2023/03/13 06:03:24;;;;;;;;;;;;;;;;;;4229643;27;19926;-45
2023/03/13 06:05:27;;;;;;;;;;;;;;;;;;4225090;28;19923;-48
2023/03/13 06:07:28;;;;;;;;;;;;;;;;;;4213412;28;20515;-45
2023/03/13 06:09:29;;;;;;;;;;;;;;;;;;4228943;28;19977;-45
2023/03/13 06:11:31;;;;;;;;;;;;;;;;;;4213200;28;19919;-48
2023/03/13 06:13:32;;;;;;;;;;;;;;;;;;4220178;28;19919;-44
2023/03/13 06:15:37;;;;;;;;;;;;;;;;;;4235432;27;20370;-44
2023/03/13 06:17:47;;;;;;;;;;;;;;;;;;4214510;28;20305;-45
2023/03/13 06:19:48;;;;;;;;;;;;;;;;;;4217315;28;19919;-44
2023/03/13 06:21:50;;;;;;;;;;;;;;;;;;4209522;28;19920;-44
2023/03/13 06:23:51;;;;;;;;;;;;;;;;;;4215682;28;20442;-42
2023/03/13 06:25:52;;;;;;;;;;;;;;;;;;4228899;27;19919;-44
2023/03/13 06:27:53;;;;;;;;;;;;;;;;;;4234935;27;19942;-46
2023/03/13 06:29:54;;;;;;;;;;;;;;;;;;4234717;27;19919;-46
2023/03/13 06:31:56;;;;;;;;;;;;;;;;;;4230906;27;19920;-48
2023/03/13 06:33:56;;;;;;;;;;;;;;;;;;4232680;27;19926;-44
2023/03/13 06:35:58;;;;;;;;;;;;;;;;;;4231468;27;19923;-44
2023/03/13 06:37:59;;;;;;;;;;;;;;;;;;4227409;27;19919;-42
2023/03/13 06:40:00;;;;;;;;;;;;;;;;;;4232015;27;20424;-42
2023/03/13 06:42:01;;;;;;;;;;;;;;;;;;4220887;28;20374;-43
2023/03/13 06:44:02;;;;;;;;;;;;;;;;;;4230264;27;19924;-50
2023/03/13 06:46:04;;;;;;;;;;;;;;;;;;4230085;27;20250;-48
2023/03/13 06:48:05;;;;;;;;;;;;;;;;;;4232558;27;19920;-45
2023/03/13 06:50:06;;;;;;;;;;;;;;;;;;4234168;27;19919;-44
2023/03/13 06:52:07;;;;;;;;;;;;;;;;;;4230573;27;19945;-45
2023/03/13 06:54:09;;;;;;;;;;;;;;;;;;4231929;27;19923;-50
2023/03/13 06:56:10;;;;;;;;;;;;;;;;;;4227122;27;19919;-47
2023/03/13 06:58:11;;;;;;;;;;;;;;;;;;4224570;27;20382;-49
2023/03/13 07:00:12;;;;;;;;;;;;;;;;;;4225229;27;20084;-50
2023/03/13 07:02:13;;;;;;;;;;;;;;;;;;4229461;27;19964;-49
2023/03/13 07:04:15;;;;;;;;;;;;;;;;;;4218520;27;19928;-51
2023/03/13 07:06:17;;;;;;;;;;;;;;;;;;4215223;27;19915;-48
2023/03/13 07:08:18;;;;;;;;;;;;;;;;;;4225850;27;20260;-49
2023/03/13 07:10:19;;;;;;;;;;;;;;;;;;4221975;27;19964;-48
2023/03/13 07:12:21;;;;;;;;;;;;;;;;;;4223950;27;19927;-52
2023/03/13 07:14:22;;;;;;;;;;;;;;;;;;4222124;27;19923;-49
2023/03/13 07:16:23;;;;;;;;;;;;;;;;;;4222637;27;19931;-49
2023/03/13 07:18:24;;;;;;;;;;;;;;;;;;4215697;27;19919;-50
2023/03/13 07:20:25;;;;;;;;;;;;;;;;;;4217903;27;19931;-49
2023/03/13 07:22:27;;;;;;;;;;;;;;;;;;4219166;27;19968;-48
2023/03/13 07:24:28;;;;;;;;;;;;;;;;;;4216771;27;20395;-48
2023/03/13 07:26:29;;;;;;;;;;;;;;;;;;4216126;27;19975;-49
2023/03/13 07:28:31;;;;;;;;;;;;;;;;;;4222974;27;19923;-52
2023/03/13 07:30:32;;;;;;;;;;;;;;;;;;4216472;27;20344;-51
2023/03/13 07:32:33;;;;;;;;;;;;;;;;;;4217880;27;19923;-49
2023/03/13 07:34:34;;;;;;;;;;;;;;;;;;4224102;27;20380;-47
2023/03/13 07:36:36;;;;;;;;;;;;;;;;;;4219719;27;20306;-47
2023/03/13 07:38:37;;;;;;;;;;;;;;;;;;4221594;27;19931;-48
2023/03/13 07:40:38;;;;;;;;;;;;;;;;;;4219404;27;20413;-48
2023/03/13 07:42:39;;;;;;;;;;;;;;;;;;4221051;27;19927;-47
2023/03/13 07:44:40;;;;;;;;;;;;;;;;;;4210707;28;20327;-50
2023/03/13 07:46:41;;;;;;;;;;;;;;;;;;4209490;28;19930;-48
2023/03/13 07:48:42;;;;;;;;;;;;;;;;;;4220063;27;19996;-43
2023/03/13 07:50:44;;;;;;;;;;;;;;;;;;4207287;28;20012;-47
2023/03/13 07:52:45;;;;;;;;;;;;;;;;;;4216368;27;19923;-44
2023/03/13 07:54:46;;;;;;;;;;;;;;;;;;4223805;27;20335;-46
2023/03/13 07:56:47;;;;;;;;;;;;;;;;;;4218774;27;19939;-48
2023/03/13 07:58:48;;;;;;;;;;;;;;;;;;4222600;27;19930;-44
2023/03/13 08:00:50;;;;;;;;;;;;;;;;;;4218685;27;19927;-46
2023/03/13 08:02:51;;;;;;;;;;;;;;;;;;4211004;27;20336;-45
2023/03/13 08:04:52;;;;;;;;;;;;;;;;;;4219968;27;19923;-47
2023/03/13 08:06:54;;;;;;;;;;;;;;;;;;4217095;27;19924;-48
2023/03/13 08:08:55;;;;;;;;;;;;;;;;;;4219150;27;19984;-47
2023/03/13 08:10:55;;;;;;;;;;;;;;;;;;4224877;27;19959;-49
2023/03/13 08:12:56;;;;;;;;;;;;;;;;;;4225253;27;19950;-47
2023/03/13 08:14:57;;;;;;;;;;;;;;;;;;4224567;27;19964;-45
2023/03/13 08:16:58;;;;;;;;;;;;;;;;;;4229020;27;19929;-51
2023/03/13 08:18:59;;;;;;;;;;;;;;;;;;4226556;27;19955;-48
2023/03/13 08:21:00;;;;;;;;;;;;;;;;;;4226805;27;19964;-46
2023/03/13 08:23:01;;;;;;;;;;;;;;;;;;4222532;27;19931;-49
2023/03/13 08:25:02;;;;;;;;;;;;;;;;;;4220516;27;20045;-47
2023/03/13 08:27:03;;;;;;;;;;;;;;;;;;4218708;27;20416;-48
2023/03/13 08:29:04;;;;;;;;;;;;;;;;;;4219710;27;19924;-48
2023/03/13 08:31:05;;;;;;;;;;;;;;;;;;4221965;27;20378;-48
2023/03/13 08:33:06;;;;;;;;;;;;;;;;;;4198091;27;19971;-49
2023/03/13 08:35:07;;;;;;;;;;;;;;;;;;4201632;27;19923;-50
2023/03/13 08:37:08;;;;;;;;;;;;;;;;;;4203943;27;19973;-46
2023/03/13 08:39:09;;;;;;;;;;;;;;;;;;4215910;27;19924;-47
2023/03/13 08:41:10;;;;;;;;;;;;;;;;;;4212094;27;19949;-52
2023/03/13 08:43:12;;;;;;;;;;;;;;;;;;4216568;27;20457;-50
2023/03/13 08:45:12;;;;;;;;;;;;;;;;;;4217053;27;19934;-45
2023/03/13 08:47:14;;;;;;;;;;;;;;;;;;4215986;27;19920;-48
2023/03/13 08:49:16;;;;;;;;;;;;;;;;;;4213758;27;21566;-48
2023/03/13 08:51:17;;;;;;;;;;;;;;;;;;4209822;28;19923;-47
2023/03/13 08:53:18;;;;;;;;;;;;;;;;;;4209535;27;19924;-45
2023/03/13 08:55:19;;;;;;;;;;;;;;;;;;4206086;28;19923;-46
2023/03/13 08:57:20;;;;;;;;;;;;;;;;;;4198266;28;20066;-49
2023/03/13 08:59:21;;;;;;;;;;;;;;;;;;4211242;28;19919;-48
2023/03/13 09:01:22;;;;;;;;;;;;;;;;;;4196815;28;21743;-51
2023/03/13 09:03:24;;;;;;;;;;;;;;;;;;4198266;28;20295;-49
2023/03/13 09:05:25;;;;;;;;;;;;;;;;;;4205593;28;20156;-48
2023/03/13 09:07:26;;;;;;;;;;;;;;;;;;4210379;28;19944;-45
2023/03/13 09:09:27;;;;;;;;;;;;;;;;;;4209675;28;19919;-45
2023/03/13 09:11:29;;;;;;;;;;;;;;;;;;4215571;28;19923;-50
2023/03/13 09:13:30;;;;;;;;;;;;;;;;;;4200969;28;20298;-47
2023/03/13 09:15:30;;;;;;;;;;;;;;;;;;4188694;28;19962;-44
2023/03/13 09:17:32;;;;;;;;;;;;;;;;;;4212755;28;20259;-45
2023/03/13 09:19:33;;;;;;;;;;;;;;;;;;4210006;28;20348;-47
2023/03/13 09:21:34;;;;;;;;;;;;;;;;;;4213499;28;21129;-46
2023/03/13 09:23:35;;;;;;;;;;;;;;;;;;4212164;28;19966;-47
2023/03/13 09:25:37;;;;;;;;;;;;;;;;;;4213849;27;19932;-49
2023/03/13 09:27:38;;;;;;;;;;;;;;;;;;4219278;27;20357;-44
2023/03/13 09:29:41;;;;;;;;;;;;;;;;;;4217049;27;19927;-48
2023/03/13 09:31:42;;;;;;;;;;;;;;;;;;4215246;27;20720;-46
2023/03/13 09:33:43;;;;;;;;;;;;;;;;;;4202325;27;20867;-44
2023/03/13 09:35:49;;;;;;;;;;;;;;;;;;4208192;27;19974;-45
2023/03/13 09:37:50;;;;;;;;;;;;;;;;;;4220178;27;19924;-47
2023/03/13 09:39:51;;;;;;;;;;;;;;;;;;4221312;27;19927;-45
2023/03/13 09:41:52;;;;;;;;;;;;;;;;;;4219049;27;19964;-44
2023/03/13 09:43:54;;;;;;;;;;;;;;;;;;4211901;27;19930;-46
2023/03/13 09:45:55;;;;;;;;;;;;;;;;;;4218247;27;20539;-49
2023/03/13 09:47:55;;;;;;;;;;;;;;;;;;4199685;28;19954;-46
2023/03/13 09:49:56;;;;;;;;;;;;;;;;;;4214100;27;19923;-45
2023/03/13 09:51:57;;;;;;;;;;;;;;;;;;4212846;27;19923;-44
2023/03/13 09:53:59;;;;;;;;;;;;;;;;;;4207192;27;21197;-44
2023/03/13 09:56:00;;;;;;;;;;;;;;;;;;4205256;28;19947;-45
2023/03/13 09:58:01;;;;;;;;;;;;;;;;;;4213811;27;20242;-47
2023/03/13 10:00:05;;;;;;;;;;;;;;;;;;4199988;27;20756;-47
2023/03/13 10:02:08;;;;;;;;;;;;;;;;;;4196364;27;20091;-49
2023/03/13 10:04:09;;;;;;;;;;;;;;;;;;4212057;27;19927;-46
2023/03/13 10:06:10;;;;;;;;;;;;;;;;;;4206819;27;20343;-48
2023/03/13 10:08:11;;;;;;;;;;;;;;;;;;4209094;27;20062;-47
2023/03/13 10:10:12;;;;;;;;;;;;;;;;;;4217482;27;19979;-44
2023/03/13 10:12:14;;;;;;;;;;;;;;;;;;4216306;27;19975;-43
2023/03/13 10:14:15;;;;;;;;;;;;;;;;;;4215439;27;19923;-45
2023/03/13 10:16:16;;;;;;;;;;;;;;;;;;4212550;27;20387;-44
2023/03/13 10:18:19;;;;;;;;;;;;;;;;;;4216283;27;20383;-45
2023/03/13 10:20:21;;;;;;;;;;;;;;;;;;4218417;27;21015;-47
2023/03/13 10:22:22;;;;;;;;;;;;;;;;;;4216826;27;19924;-44
2023/03/13 10:24:23;;;;;;;;;;;;;;;;;;4212546;27;19928;-44
2023/03/13 10:26:24;;;;;;;;;;;;;;;;;;4218346;27;19923;-46
2023/03/13 10:28:25;;;;;;;;;;;;;;;;;;4215997;27;19975;-45
2023/03/13 10:30:27;;;;;;;;;;;;;;;;;;4205696;28;19971;-44
2023/03/13 10:32:28;;;;;;;;;;;;;;;;;;4210169;27;19987;-44
2023/03/13 10:34:29;;;;;;;;;;;;;;;;;;4213780;27;19978;-46
2023/03/13 10:36:30;;;;;;;;;;;;;;;;;;4219349;27;20000;-44
2023/03/13 10:38:31;;;;;;;;;;;;;;;;;;4216875;27;19969;-44
2023/03/13 10:40:32;;;;;;;;;;;;;;;;;;4218376;27;20274;-44
2023/03/13 10:42:33;;;;;;;;;;;;;;;;;;4218230;27;19967;-44
2023/03/13 10:44:34;;;;;;;;;;;;;;;;;;4217768;27;19951;-44
2023/03/13 10:46:35;;;;;;;;;;;;;;;;;;4219179;27;19924;-44
2023/03/13 10:48:37;;;;;;;;;;;;;;;;;;4214891;27;20405;-43
2023/03/13 10:50:38;;;;;;;;;;;;;;;;;;4192126;27;19920;-43
2023/03/13 10:52:39;;;;;;;;;;;;;;;;;;4219546;27;19927;-48
2023/03/13 10:54:40;;;;;;;;;;;;;;;;;;4222795;27;20276;-47
2023/03/13 10:56:41;;;;;;;;;;;;;;;;;;4221784;27;19931;-46
2023/03/13 10:58:43;;;;;;;;;;;;;;;;;;4191895;28;19953;-49
2023/03/13 11:00:44;;;;;;;;;;;;;;;;;;4212973;27;20760;-48
2023/03/13 11:02:45;;;;;;;;;;;;;;;;;;4220478;27;20374;-49
2023/03/13 11:04:52;;;;;;;;;;;;;;;;;;4223561;27;19928;-47
2023/03/13 11:06:53;;;;;;;;;;;;;;;;;;4221211;27;19928;-48
2023/03/13 11:08:54;;;;;;;;;;;;;;;;;;4219028;27;19999;-45
2023/03/13 11:10:55;;;;;;;;;;;;;;;;;;4222093;27;20485;-44
2023/03/13 11:12:56;;;;;;;;;;;;;;;;;;4221279;27;20459;-48
2023/03/13 11:14:57;;;;;;;;;;;;;;;;;;4223922;27;20410;-48
2023/03/13 11:16:58;;;;;;;;;;;;;;;;;;4206633;28;19924;-48
2023/03/13 11:18:58;;;;;;;;;;;;;;;;;;4218855;27;20357;-47
2023/03/13 11:21:00;;;;;;;;;;;;;;;;;;4210388;28;19923;-47
2023/03/13 11:23:01;;;;;;;;;;;;;;;;;;4217153;27;19969;-45
2023/03/13 11:25:03;;;;;;;;;;;;;;;;;;4207351;28;19924;-45
2023/03/13 11:27:05;;;;;;;;;;;;;;;;;;4207515;28;20632;-49
2023/03/13 11:29:06;;;;;;;;;;;;;;;;;;4204247;28;19928;-48
2023/03/13 11:31:07;;;;;;;;;;;;;;;;;;4201655;28;20341;-47
2023/03/13 11:33:08;;;;;;;;;;;;;;;;;;4203055;28;19920;-50
2023/03/13 11:35:09;;;;;;;;;;;;;;;;;;4204310;28;20572;-46
2023/03/13 11:37:10;;;;;;;;;;;;;;;;;;4203755;28;20947;-48
2023/03/13 11:39:11;;;;;;;;;;;;;;;;;;4197909;28;20137;-45
2023/03/13 11:41:12;;;;;;;;;;;;;;;;;;4202134;28;20499;-46
2023/03/13 11:43:14;;;;;;;;;;;;;;;;;;4197039;28;19928;-48
2023/03/13 11:45:15;;;;;;;;;;;;;;;;;;4201007;28;19976;-47
2023/03/13 11:47:16;;;;;;;;;;;;;;;;;;4203918;28;20058;-46
2023/03/13 11:49:17;;;;;;;;;;;;;;;;;;4200648;28;19953;-47
2023/03/13 11:51:19;;;;;;;;;;;;;;;;;;4203154;28;20320;-48
2023/03/13 11:53:19;;;;;;;;;;;;;;;;;;4198742;28;20576;-46
2023/03/13 11:55:21;;;;;;;;;;;;;;;;;;4196404;28;20679;-48
2023/03/13 11:57:24;;;;;;;;;;;;;;;;;;4202451;28;19985;-45
2023/03/13 11:59:26;;;;;;;;;;;;;;;;;;4199416;28;19988;-45
2023/03/13 12:01:27;;;;;;;;;;;;;;;;;;4187546;28;19931;-46
2023/03/13 12:03:29;;;;;;;;;;;;;;;;;;4195519;28;20133;-47
2023/03/13 12:05:30;;;;;;;;;;;;;;;;;;4204298;28;19927;-46
2023/03/13 12:07:31;;;;;;;;;;;;;;;;;;4203429;28;20409;-45
2023/03/13 12:09:31;;;;;;;;;;;;;;;;;;4195051;28;22018;-45
2023/03/13 12:11:32;;;;;;;;;;;;;;;;;;4201344;28;20042;-47
2023/03/13 12:13:33;;;;;;;;;;;;;;;;;;4202731;27;19924;-46
2023/03/13 12:15:34;;;;;;;;;;;;;;;;;;4199779;27;20345;-45
2023/03/13 12:17:35;;;;;;;;;;;;;;;;;;4201196;28;20305;-45
2023/03/13 12:19:36;;;;;;;;;;;;;;;;;;4184580;28;20696;-44
2023/03/13 12:21:38;;;;;;;;;;;;;;;;;;4205068;28;19924;-49
2023/03/13 12:23:40;;;;;;;;;;;;;;;;;;4200122;28;19927;-45
2023/03/13 12:25:41;;;;;;;;;;;;;;;;;;4205971;27;19934;-46
2023/03/13 12:27:42;;;;;;;;;;;;;;;;;;4218549;27;20598;-50
2023/03/13 12:29:43;;;;;;;;;;;;;;;;;;4211598;27;20471;-44
2023/03/13 12:31:45;;;;;;;;;;;;;;;;;;4215644;27;19931;-47
2023/03/13 12:33:46;;;;;;;;;;;;;;;;;;4198824;27;20188;-49
2023/03/13 12:35:47;;;;;;;;;;;;;;;;;;4216597;27;19980;-48
2023/03/13 12:37:48;;;;;;;;;;;;;;;;;;4215126;27;19919;-46
2023/03/13 12:39:49;;;;;;;;;;;;;;;;;;4210357;27;21038;-50
2023/03/13 12:41:51;;;;;;;;;;;;;;;;;;4211526;27;19924;-48
2023/03/13 12:43:52;;;;;;;;;;;;;;;;;;4214659;27;20279;-45
2023/03/13 12:45:53;;;;;;;;;;;;;;;;;;4206830;27;19945;-46
2023/03/13 12:47:54;;;;;;;;;;;;;;;;;;4216537;27;19919;-47
2023/03/13 12:49:55;;;;;;;;;;;;;;;;;;4218651;27;20403;-51
2023/03/13 12:51:56;;;;;;;;;;;;;;;;;;4225311;27;19959;-47
2023/03/13 12:53:57;;;;;;;;;;;;;;;;;;4217647;27;19973;-47
2023/03/13 12:55:58;;;;;;;;;;;;;;;;;;4214821;27;20648;-47
2023/03/13 12:58:00;;;;;;;;;;;;;;;;;;4222805;28;19948;-46
2023/03/13 13:00:06;;;;;;;;;;;;;;;;;;4216676;27;19923;-49
2023/03/13 13:02:07;;;;;;;;;;;;;;;;;;4214588;28;19920;-46
2023/03/13 13:04:09;;;;;;;;;;;;;;;;;;4219511;28;20681;-50
2023/03/13 13:06:10;;;;;;;;;;;;;;;;;;4215193;28;19923;-51
2023/03/13 13:08:11;;;;;;;;;;;;;;;;;;4211273;28;20332;-48
2023/03/13 13:10:14;;;;;;;;;;;;;;;;;;4208716;28;19977;-44
2023/03/13 13:12:15;;;;;;;;;;;;;;;;;;4214782;28;19969;-48
2023/03/13 13:14:16;;;;;;;;;;;;;;;;;;4218248;28;20378;-46
2023/03/13 13:16:18;;;;;;;;;;;;;;;;;;4210033;28;19973;-47
2023/03/13 13:18:19;;;;;;;;;;;;;;;;;;4210428;28;19923;-50
2023/03/13 13:20:20;;;;;;;;;;;;;;;;;;4214777;28;19923;-49
2023/03/13 13:22:21;;;;;;;;;;;;;;;;;;4212142;28;20058;-49
2023/03/13 13:24:22;;;;;;;;;;;;;;;;;;4210514;28;19954;-47
2023/03/13 13:26:25;;;;;;;;;;;;;;;;;;4201269;28;19927;-46
2023/03/13 13:28:29;;;;;;;;;;;;;;;;;;4198090;28;21195;-46
2023/03/13 13:30:30;;;;;;;;;;;;;;;;;;4196972;28;19957;-52
2023/03/13 13:32:31;;;;;;;;;;;;;;;;;;4200367;28;19923;-48
2023/03/13 13:34:33;;;;;;;;;;;;;;;;;;4199202;28;19924;-49
2023/03/13 13:36:34;;;;;;;;;;;;;;;;;;4197240;28;19924;-49
2023/03/13 13:38:38;;;;;;;;;;;;;;;;;;4196514;28;19923;-48
2023/03/13 13:40:39;;;;;;;;;;;;;;;;;;4194161;28;19931;-50
2023/03/13 13:42:44;;;;;;;;;;;;;;;;;;4205015;28;20367;-46
2023/03/13 13:44:45;;;;;;;;;;;;;;;;;;4205360;28;19931;-47
2023/03/13 13:46:47;;;;;;;;;;;;;;;;;;4200310;28;19923;-50
2023/03/13 13:48:48;;;;;;;;;;;;;;;;;;4197008;28;20561;-53
2023/03/13 13:50:49;;;;;;;;;;;;;;;;;;4203758;28;19924;-51
2023/03/13 13:52:50;;;;;;;;;;;;;;;;;;4202307;28;20306;-53
2023/03/13 13:54:53;;;;;;;;;;;;;;;;;;4199407;28;20956;-53
2023/03/13 13:56:54;;;;;;;;;;;;;;;;;;4207495;28;19930;-54
2023/03/13 13:58:56;;;;;;;;;;;;;;;;;;4198508;28;19935;-53
2023/03/13 14:00:57;;;;;;;;;;;;;;;;;;4193391;28;19996;-52
2023/03/13 14:02:57;;;;;;;;;;;;;;;;;;4203689;28;20018;-51